Time;durP1;ratioP1;P1;durP2;ratioP2;P2;SDS_P1;SDS_P2;PMS_P1;PMS_P2;Temp;Humidity;BMP_temperature;BMP_pressure;BME280_temperature;BME280_humidity;BME280_pressure;Samples;Min_cycle;Max_cycle;Signal;HPM_P1;HPM_P2
2023/03/18 00:02:13;;;;;;;12.50;7.30;;;12.20;99.90;;;;;;4968739;28;20058;-48
2023/03/18 00:04:39;;;;;;;13.55;8.15;;;12.20;99.90;;;;;;4953503;28;20122;-47
2023/03/18 00:07:05;;;;;;;15.18;8.40;;;12.20;99.90;;;;;;4953351;28;20115;-50
2023/03/18 00:09:31;;;;;;;15.23;8.88;;;12.10;99.90;;;;;;4954884;29;20551;-46
2023/03/18 00:11:57;;;;;;;15.88;8.32;;;12.10;99.90;;;;;;4954649;28;20039;-47
2023/03/18 00:14:23;;;;;;;15.93;9.13;;;12.10;99.90;;;;;;4953833;28;20043;-48
2023/03/18 00:16:49;;;;;;;17.40;8.98;;;12.10;99.90;;;;;;4954351;28;20043;-49
2023/03/18 00:19:16;;;;;;;15.38;8.55;;;12.10;99.90;;;;;;4954777;28;20042;-49
2023/03/18 00:21:42;;;;;;;16.80;9.10;;;12.10;99.90;;;;;;4953386;28;20373;-47
2023/03/18 00:24:08;;;;;;;14.52;9.35;;;12.00;99.90;;;;;;4954631;28;20181;-49
2023/03/18 00:26:35;;;;;;;14.30;9.93;;;12.00;99.90;;;;;;4952837;28;20050;-48
2023/03/18 00:29:01;;;;;;;14.57;9.55;;;12.00;99.90;;;;;;4954130;28;20381;-49
2023/03/18 00:31:28;;;;;;;13.80;10.20;;;12.00;99.90;;;;;;4968103;28;20503;-47
2023/03/18 00:33:54;;;;;;;16.15;9.15;;;12.00;99.90;;;;;;4954115;28;20043;-52
2023/03/18 00:36:24;;;;;;;16.80;10.40;;;11.90;99.90;;;;;;4953096;28;20055;-47
2023/03/18 00:38:56;;;;;;;16.80;9.43;;;11.90;99.90;;;;;;4953925;29;20043;-47
2023/03/18 00:41:26;;;;;;;17.25;10.20;;;11.90;99.90;;;;;;4954405;28;20049;-48
2023/03/18 00:43:52;;;;;;;14.85;10.48;;;11.90;99.90;;;;;;4953264;29;20055;-49
2023/03/18 00:46:30;;;;;;;17.23;9.43;;;11.80;99.90;;;;;;4953727;29;20043;-48
2023/03/18 00:48:59;;;;;;;16.05;11.20;;;11.80;99.90;;;;;;4952617;29;20047;-49
2023/03/18 00:51:27;;;;;;;16.08;10.50;;;11.70;99.90;;;;;;4953434;28;20040;-46
2023/03/18 00:53:55;;;;;;;19.65;11.75;;;11.70;99.90;;;;;;4952139;28;20137;-51
2023/03/18 00:56:23;;;;;;;18.92;11.05;;;11.60;99.90;;;;;;4953839;29;20047;-47
2023/03/18 00:58:51;;;;;;;17.95;10.43;;;11.60;99.90;;;;;;4953131;28;20130;-47
2023/03/18 01:01:18;;;;;;;18.38;11.38;;;11.50;99.90;;;;;;4953899;28;20035;-47
2023/03/18 01:03:46;;;;;;;16.70;10.95;;;11.50;99.90;;;;;;4952832;28;20079;-48
2023/03/18 01:06:15;;;;;;;16.98;10.65;;;11.40;99.90;;;;;;4953804;28;20047;-48
2023/03/18 01:08:41;;;;;;;16.38;10.60;;;11.40;99.90;;;;;;4953740;28;20496;-47
2023/03/18 01:11:08;;;;;;;16.88;10.88;;;11.30;99.90;;;;;;4953322;28;20051;-48
2023/03/18 01:13:35;;;;;;;15.98;11.50;;;11.30;99.90;;;;;;4953621;28;20070;-47
2023/03/18 01:16:02;;;;;;;16.90;12.45;;;11.20;99.90;;;;;;4952767;28;20047;-49
2023/03/18 01:18:28;;;;;;;17.38;11.93;;;11.20;99.90;;;;;;4952628;28;20046;-48
2023/03/18 01:20:54;;;;;;;17.15;12.63;;;11.10;99.90;;;;;;4952056;29;20047;-50
2023/03/18 01:23:20;;;;;;;21.67;13.13;;;11.10;99.90;;;;;;4953307;28;20047;-46
2023/03/18 01:25:45;;;;;;;20.58;13.40;;;11.00;99.90;;;;;;4952984;28;20438;-49
2023/03/18 01:28:12;;;;;;;19.55;12.90;;;11.00;99.90;;;;;;4952181;28;20554;-52
2023/03/18 01:30:38;;;;;;;21.02;13.27;;;10.90;99.90;;;;;;4953368;28;20547;-48
2023/03/18 01:33:06;;;;;;;20.00;14.93;;;10.90;99.90;;;;;;4951558;28;20318;-50
2023/03/18 01:35:34;;;;;;;20.25;12.82;;;10.90;99.90;;;;;;4952976;28;20054;-49
2023/03/18 01:38:03;;;;;;;19.80;13.70;;;10.80;99.90;;;;;;4952055;29;20043;-48
2023/03/18 01:40:34;;;;;;;24.92;14.88;;;10.80;99.90;;;;;;4951962;28;20043;-49
2023/03/18 01:43:23;;;;;;;20.70;14.85;;;10.80;99.90;;;;;;4953140;28;20098;-47
2023/03/18 01:45:57;;;;;;;24.33;14.85;;;10.70;99.90;;;;;;4951538;29;20487;-46
2023/03/18 01:48:25;;;;;;;26.23;15.73;;;10.70;99.90;;;;;;4947834;29;20198;-51
2023/03/18 01:51:10;;;;;;;23.58;15.00;;;10.70;99.90;;;;;;4952703;28;20050;-48
2023/03/18 01:53:43;;;;;;;23.42;16.05;;;10.70;99.90;;;;;;4952802;29;20082;-47
2023/03/18 01:56:10;;;;;;;21.30;15.15;;;10.70;99.90;;;;;;4951719;29;20487;-47
2023/03/18 01:58:41;;;;;;;19.85;15.43;;;10.60;99.90;;;;;;4951696;28;20031;-50
2023/03/18 02:01:21;;;;;;;19.70;14.52;;;10.60;99.90;;;;;;4950941;28;20154;-49
2023/03/18 02:03:49;;;;;;;23.00;15.52;;;10.60;99.90;;;;;;4951063;29;20487;-48
2023/03/18 02:06:15;;;;;;;20.95;15.57;;;10.50;99.90;;;;;;4952397;29;20079;-51
2023/03/18 02:08:40;;;;;;;21.70;14.88;;;10.50;99.90;;;;;;4951664;29;20070;-48
2023/03/18 02:11:08;;;;;;;23.52;15.85;;;10.50;99.90;;;;;;4952353;28;20094;-50
2023/03/18 02:13:40;;;;;;;24.48;16.63;;;10.50;99.90;;;;;;4952449;28;20043;-47
2023/03/18 02:16:22;;;;;;;23.75;15.77;;;10.40;99.90;;;;;;4950958;29;20039;-48
2023/03/18 02:18:56;;;;;;;21.60;15.40;;;10.40;99.90;;;;;;4952139;28;20039;-48
2023/03/18 02:22:07;;;;;;;24.35;15.82;;;10.30;99.90;;;;;;4951115;28;20831;-49
2023/03/18 02:24:52;;;;;;;25.65;14.77;;;10.30;99.90;;;;;;4950053;29;20055;-48
2023/03/18 02:27:29;;;;;;;21.45;14.75;;;10.30;99.90;;;;;;4950787;28;20039;-49
2023/03/18 02:29:58;;;;;;;19.98;14.23;;;10.30;99.90;;;;;;4952137;28;20035;-50
2023/03/18 02:32:27;;;;;;;22.58;15.75;;;10.30;99.90;;;;;;4952159;28;20043;-48
2023/03/18 02:34:54;;;;;;;20.55;14.88;;;10.20;99.90;;;;;;4950885;28;20128;-47
2023/03/18 02:37:19;;;;;;;23.83;16.23;;;10.20;99.90;;;;;;4951180;29;20043;-46
2023/03/18 02:39:45;;;;;;;20.88;15.38;;;10.20;99.90;;;;;;4950244;28;20043;-49
2023/03/18 02:42:13;;;;;;;22.73;16.13;;;10.20;99.90;;;;;;4951707;29;20043;-50
2023/03/18 02:44:42;;;;;;;22.90;15.73;;;10.10;99.90;;;;;;4949314;29;20126;-48
2023/03/18 02:47:15;;;;;;;26.00;15.98;;;10.20;99.90;;;;;;4952409;28;20373;-48
2023/03/18 02:49:40;;;;;;;25.00;16.45;;;10.10;99.90;;;;;;4951470;28;20119;-48
2023/03/18 02:52:06;;;;;;;24.75;17.10;;;10.10;99.90;;;;;;4951928;28;20454;-48
2023/03/18 02:54:32;;;;;;;23.85;17.83;;;10.10;99.90;;;;;;4950004;29;20046;-49
2023/03/18 02:56:58;;;;;;;26.98;17.42;;;10.10;99.90;;;;;;4951108;29;20047;-48
2023/03/18 02:59:24;;;;;;;24.35;18.15;;;10.00;99.90;;;;;;4951757;28;20091;-48
2023/03/18 03:01:52;;;;;;;28.73;18.52;;;10.10;99.90;;;;;;4950659;29;20452;-48
2023/03/18 03:04:21;;;;;;;27.83;17.55;;;10.10;99.90;;;;;;4952642;28;20031;-49
2023/03/18 03:06:47;;;;;;;23.98;17.90;;;10.10;99.90;;;;;;4952020;28;20035;-50
2023/03/18 03:09:15;;;;;;;25.70;20.38;;;10.00;99.90;;;;;;4950889;28;20035;-50
2023/03/18 03:11:43;;;;;;;28.50;19.75;;;10.00;99.90;;;;;;4951086;28;20035;-47
2023/03/18 03:14:10;;;;;;;27.40;20.23;;;10.00;99.90;;;;;;4951886;28;20051;-49
2023/03/18 03:16:36;;;;;;;28.30;19.60;;;10.00;99.90;;;;;;4952334;28;20394;-50
2023/03/18 03:19:03;;;;;;;29.73;21.15;;;10.20;99.90;;;;;;4952628;28;20114;-47
2023/03/18 03:21:29;;;;;;;29.10;20.20;;;10.00;99.90;;;;;;4951984;28;20042;-48
2023/03/18 03:23:55;;;;;;;29.48;22.25;;;10.00;99.90;;;;;;4951437;28;20435;-48
2023/03/18 03:26:21;;;;;;;32.90;22.40;;;10.00;99.90;;;;;;4950040;29;20043;-48
2023/03/18 03:28:47;;;;;;;29.52;21.10;;;10.00;99.90;;;;;;4950693;28;20505;-47
2023/03/18 03:31:13;;;;;;;28.80;21.52;;;10.00;99.90;;;;;;4951861;28;20035;-49
2023/03/18 03:33:40;;;;;;;35.97;23.55;;;10.00;99.90;;;;;;4950831;28;20039;-49
2023/03/18 03:36:11;;;;;;;33.40;21.98;;;10.00;99.90;;;;;;4951814;28;20051;-47
2023/03/18 03:38:38;;;;;;;29.33;21.38;;;10.00;99.90;;;;;;4956991;28;20047;-50
2023/03/18 03:41:04;;;;;;;28.88;21.17;;;10.00;99.90;;;;;;4954355;28;20498;-51
2023/03/18 03:43:32;;;;;;;27.30;21.35;;;10.00;99.90;;;;;;4954925;29;20545;-52
2023/03/18 03:45:58;;;;;;;27.92;20.85;;;10.00;99.90;;;;;;4955392;28;20113;-48
2023/03/18 03:48:24;;;;;;;29.35;20.58;;;10.00;99.90;;;;;;4955338;28;20039;-48
2023/03/18 03:50:50;;;;;;;28.85;20.20;;;10.00;99.90;;;;;;4969296;28;20046;-50
2023/03/18 03:53:15;;;;;;;32.33;20.95;;;10.00;99.90;;;;;;4954913;28;20043;-47
2023/03/18 03:55:41;;;;;;;30.38;19.55;;;10.00;99.90;;;;;;4954662;28;20046;-46
2023/03/18 03:58:08;;;;;;;27.35;19.60;;;10.00;99.90;;;;;;4953444;29;20067;-50
2023/03/18 04:00:34;;;;;;;26.40;19.77;;;10.00;99.90;;;;;;4953386;28;20050;-47
2023/03/18 04:02:59;;;;;;;27.33;20.45;;;10.00;99.90;;;;;;4954090;28;20039;-48
2023/03/18 04:05:25;;;;;;;28.30;19.67;;;10.00;99.90;;;;;;4954951;28;20039;-47
2023/03/18 04:07:52;;;;;;;29.48;20.30;;;10.00;99.90;;;;;;4953382;28;20078;-47
2023/03/18 04:10:19;;;;;;;28.67;20.38;;;9.50;99.90;;;;;;4954736;28;20031;-47
2023/03/18 04:12:46;;;;;;;29.20;20.20;;;10.00;99.90;;;;;;4954741;28;20075;-49
2023/03/18 04:15:14;;;;;;;27.05;20.20;;;9.90;99.90;;;;;;4952605;29;20039;-51
2023/03/18 04:17:40;;;;;;;25.58;18.95;;;9.90;99.90;;;;;;4953187;29;20047;-45
2023/03/18 04:20:06;;;;;;;27.02;19.98;;;10.00;99.90;;;;;;4954500;28;20117;-50
2023/03/18 04:22:32;;;;;;;26.35;19.67;;;9.90;99.90;;;;;;4953632;29;20126;-49
2023/03/18 04:24:59;;;;;;;30.15;20.42;;;9.90;99.90;;;;;;4953934;28;20507;-47
2023/03/18 04:27:25;;;;;;;29.60;20.65;;;9.90;99.90;;;;;;4954485;28;20039;-46
2023/03/18 04:29:51;;;;;;;28.88;20.88;;;9.90;99.90;;;;;;4954573;28;20047;-48
2023/03/18 04:32:17;;;;;;;31.45;21.23;;;9.90;99.90;;;;;;4954817;29;20039;-50
2023/03/18 04:34:43;;;;;;;24.33;19.42;;;9.80;99.90;;;;;;4953365;29;20506;-49
2023/03/18 04:37:10;;;;;;;29.40;20.33;;;9.80;99.90;;;;;;4954094;29;20073;-47
2023/03/18 04:39:36;;;;;;;30.63;21.05;;;9.80;99.90;;;;;;4954032;28;20047;-48
2023/03/18 04:42:02;;;;;;;29.02;20.27;;;9.80;99.90;;;;;;4953844;28;20051;-47
2023/03/18 04:44:27;;;;;;;28.67;19.38;;;9.80;99.90;;;;;;4953196;29;20039;-48
2023/03/18 04:46:53;;;;;;;30.60;20.80;;;9.80;99.90;;;;;;4954299;28;20072;-48
2023/03/18 04:49:20;;;;;;;30.83;19.92;;;9.80;99.90;;;;;;4954025;29;20467;-47
2023/03/18 04:51:46;;;;;;;27.67;19.90;;;9.70;99.90;;;;;;4952915;28;20042;-46
2023/03/18 04:54:12;;;;;;;28.92;19.48;;;9.70;99.90;;;;;;4953242;28;20130;-47
2023/03/18 04:56:38;;;;;;;30.63;21.55;;;9.70;99.90;;;;;;4954348;28;20163;-50
2023/03/18 04:59:04;;;;;;;32.95;20.65;;;9.80;99.90;;;;;;4954178;29;20051;-46
2023/03/18 05:01:31;;;;;;;32.78;21.17;;;9.80;99.90;;;;;;4953998;28;20067;-48
2023/03/18 05:03:57;;;;;;;28.38;20.42;;;9.80;99.90;;;;;;4953914;29;20043;-48
2023/03/18 05:06:28;;;;;;;30.25;20.95;;;9.70;99.90;;;;;;4953028;29;20039;-45
2023/03/18 05:08:55;;;;;;;28.50;21.10;;;9.80;99.90;;;;;;4952627;28;20050;-49
2023/03/18 05:11:22;;;;;;;29.52;21.23;;;9.80;99.90;;;;;;4953674;28;20062;-49
2023/03/18 05:13:47;;;;;;;30.67;20.58;;;9.90;99.90;;;;;;4952706;29;20043;-48
2023/03/18 05:16:14;;;;;;;30.65;20.65;;;9.90;99.90;;;;;;4950897;29;20154;-46
2023/03/18 05:18:40;;;;;;;27.90;19.85;;;9.90;99.90;;;;;;4952026;28;20046;-48
2023/03/18 05:21:07;;;;;;;32.92;20.35;;;9.90;99.90;;;;;;4953463;28;20043;-49
2023/03/18 05:23:33;;;;;;;27.38;20.25;;;9.90;99.90;;;;;;4953634;28;20053;-51
2023/03/18 05:25:59;;;;;;;30.77;20.42;;;9.90;99.90;;;;;;4953947;28;20067;-47
2023/03/18 05:28:25;;;;;;;28.50;20.15;;;9.90;99.90;;;;;;4950374;29;21734;-49
2023/03/18 05:30:51;;;;;;;28.27;19.13;;;9.90;99.90;;;;;;4952431;28;20036;-49
2023/03/18 05:33:18;;;;;;;29.58;19.95;;;9.90;99.90;;;;;;4953119;28;20090;-48
2023/03/18 05:35:44;;;;;;;27.83;19.05;;;9.90;99.90;;;;;;4952859;28;20094;-50
2023/03/18 05:38:10;;;;;;;29.90;18.52;;;9.90;99.90;;;;;;4952354;28;20082;-49
2023/03/18 05:40:36;;;;;;;27.13;18.83;;;10.00;99.90;;;;;;4952943;29;20093;-48
2023/03/18 05:43:02;;;;;;;28.10;19.95;;;10.10;99.90;;;;;;4952113;28;20043;-48
2023/03/18 05:45:27;;;;;;;30.70;19.17;;;10.00;99.90;;;;;;4952410;29;20356;-47
2023/03/18 05:47:53;;;;;;;27.65;19.83;;;9.90;99.90;;;;;;4951491;28;20382;-49
2023/03/18 05:50:36;;;;;;;30.73;20.10;;;10.00;99.90;;;;;;4950929;28;20043;-48
2023/03/18 05:53:04;;;;;;;30.45;19.85;;;10.00;99.90;;;;;;4952491;28;20114;-46
2023/03/18 05:55:30;;;;;;;36.53;20.42;;;9.90;99.90;;;;;;4952619;28;20039;-47
2023/03/18 05:57:57;;;;;;;28.20;19.55;;;9.90;99.90;;;;;;4952957;29;20035;-45
2023/03/18 06:00:24;;;;;;;27.42;19.08;;;9.90;99.90;;;;;;4950656;29;20040;-49
2023/03/18 06:02:53;;;;;;;30.40;19.05;;;10.00;99.90;;;;;;4952695;28;20039;-47
2023/03/18 06:05:19;;;;;;;30.95;19.55;;;10.00;99.90;;;;;;4952611;28;20045;-48
2023/03/18 06:07:45;;;;;;;30.13;18.17;;;10.00;99.90;;;;;;4952239;28;20043;-46
2023/03/18 06:10:12;;;;;;;26.92;17.92;;;10.00;99.90;;;;;;4952458;29;20039;-49
2023/03/18 06:12:38;;;;;;;27.00;18.02;;;10.00;99.90;;;;;;4950084;29;20035;-48
2023/03/18 06:15:07;;;;;;;25.20;16.92;;;10.10;99.90;;;;;;4952216;28;20478;-49
2023/03/18 06:17:33;;;;;;;26.05;17.63;;;10.10;99.90;;;;;;4952702;29;20067;-50
2023/03/18 06:19:59;;;;;;;26.33;16.85;;;10.00;99.90;;;;;;4953218;29;20077;-49
2023/03/18 06:22:25;;;;;;;27.02;16.70;;;10.10;99.90;;;;;;4952534;29;20050;-48
2023/03/18 06:24:52;;;;;;;26.45;16.25;;;10.10;99.90;;;;;;4952393;28;20115;-48
2023/03/18 06:27:18;;;;;;;24.52;15.45;;;10.10;99.90;;;;;;4952385;28;20170;-48
2023/03/18 06:29:44;;;;;;;26.80;15.48;;;10.10;99.90;;;;;;4950434;29;20129;-47
2023/03/18 06:32:10;;;;;;;22.38;15.20;;;10.10;99.90;;;;;;4952208;28;20058;-49
2023/03/18 06:34:35;;;;;;;24.08;16.30;;;10.10;99.90;;;;;;4949738;29;20483;-47
2023/03/18 06:37:02;;;;;;;22.65;16.08;;;10.10;99.90;;;;;;4949395;29;20058;-48
2023/03/18 06:39:28;;;;;;;23.80;15.43;;;10.10;99.90;;;;;;4940380;29;20042;-46
2023/03/18 06:41:54;;;;;;;23.73;15.07;;;10.10;99.90;;;;;;4941245;29;20031;-51
2023/03/18 06:44:21;;;;;;;23.52;14.48;;;10.10;99.90;;;;;;4941987;28;20044;-50
2023/03/18 06:46:46;;;;;;;24.00;16.02;;;10.10;99.90;;;;;;4940664;29;20089;-50
2023/03/18 06:49:13;;;;;;;23.52;15.60;;;10.10;99.90;;;;;;4944541;28;20066;-53
2023/03/18 06:51:40;;;;;;;28.00;17.30;;;10.10;99.90;;;;;;4951548;29;20195;-49
2023/03/18 06:54:06;;;;;;;29.65;18.45;;;10.10;99.90;;;;;;4949864;28;20507;-48
2023/03/18 06:56:40;;;;;;;31.08;19.42;;;10.00;99.90;;;;;;4948059;28;20074;-46
2023/03/18 06:59:06;;;;;;;;;;;10.00;99.90;;;;;;4949156;29;20036;-47
2023/03/18 07:01:33;;;;;;;28.45;18.65;;;10.00;99.90;;;;;;4951844;28;19936;-48
2023/03/18 07:03:59;;;;;;;28.65;17.45;;;10.00;99.90;;;;;;4951229;28;20043;-47
2023/03/18 07:06:31;;;;;;;28.23;19.23;;;10.00;99.90;;;;;;4951550;28;20050;-49
2023/03/18 07:08:58;;;;;;;33.03;20.05;;;10.00;99.90;;;;;;4950693;28;20086;-47
2023/03/18 07:11:24;;;;;;;31.45;20.15;;;10.00;99.90;;;;;;4949481;28;20066;-48
2023/03/18 07:13:51;;;;;;;30.02;18.98;;;10.00;99.90;;;;;;4952544;28;20490;-47
2023/03/18 07:16:18;;;;;;;32.17;20.27;;;10.00;99.90;;;;;;4955195;28;20402;-50
2023/03/18 07:18:43;;;;;;;29.15;20.48;;;10.00;99.90;;;;;;4955626;28;20039;-48
2023/03/18 07:21:10;;;;;;;32.08;20.75;;;10.00;99.90;;;;;;4952833;29;20047;-49
2023/03/18 07:23:36;;;;;;;29.90;20.55;;;9.90;99.90;;;;;;4955639;29;20545;-44
2023/03/18 07:26:02;;;;;;;29.67;20.20;;;10.00;99.90;;;;;;4955237;28;20070;-49
2023/03/18 07:28:28;;;;;;;30.00;19.80;;;10.00;99.90;;;;;;4954856;28;20035;-48
2023/03/18 07:30:55;;;;;;;31.45;18.95;;;10.10;99.90;;;;;;4954976;29;20050;-46
2023/03/18 07:33:21;;;;;;;34.25;20.48;;;10.10;99.90;;;;;;4954706;29;20499;-49
2023/03/18 07:35:47;;;;;;;30.55;20.08;;;10.10;99.90;;;;;;4954103;28;20052;-47
2023/03/18 07:38:13;;;;;;;28.63;19.88;;;10.20;99.90;;;;;;4954020;29;20039;-49
2023/03/18 07:40:38;;;;;;;30.40;19.70;;;10.20;99.90;;;;;;4953207;29;20395;-49
2023/03/18 07:43:05;;;;;;;30.83;20.70;;;10.20;99.90;;;;;;4955040;28;20680;-50
2023/03/18 07:45:31;;;;;;;32.38;21.02;;;10.20;99.90;;;;;;4954891;28;20047;-47
2023/03/18 07:47:56;;;;;;;32.95;21.70;;;10.30;99.90;;;;;;4954274;28;20031;-49
2023/03/18 07:50:22;;;;;;;32.65;22.17;;;10.40;99.90;;;;;;4954833;28;20039;-50
2023/03/18 07:52:48;;;;;;;31.23;20.98;;;10.40;99.90;;;;;;4955777;28;20035;-48
2023/03/18 07:55:14;;;;;;;31.25;20.70;;;10.50;99.90;;;;;;4955630;28;20121;-52
2023/03/18 07:57:40;;;;;;;31.65;21.65;;;10.50;99.90;;;;;;4954993;28;20035;-48
2023/03/18 08:00:09;;;;;;;33.08;21.25;;;10.50;99.90;;;;;;4952363;29;21712;-46
2023/03/18 08:02:35;;;;;;;31.17;22.30;;;10.60;99.90;;;;;;4954395;28;20054;-48
2023/03/18 08:05:02;;;;;;;33.13;21.80;;;10.60;99.90;;;;;;4954873;29;20039;-49
2023/03/18 08:07:28;;;;;;;32.80;21.70;;;10.60;99.90;;;;;;4954683;28;20074;-50
2023/03/18 08:09:54;;;;;;;29.25;22.45;;;10.70;99.90;;;;;;4953205;29;20463;-48
2023/03/18 08:12:20;;;;;;;31.67;22.20;;;10.80;99.90;;;;;;4954832;28;20047;-48
2023/03/18 08:14:48;;;;;;;36.10;23.00;;;10.80;99.90;;;;;;4954830;29;20407;-49
2023/03/18 08:17:14;;;;;;;34.08;23.88;;;10.80;99.90;;;;;;4954437;28;20051;-48
2023/03/18 08:19:40;;;;;;;37.28;24.25;;;10.90;99.90;;;;;;4954507;29;20394;-51
2023/03/18 08:22:07;;;;;;;31.67;23.77;;;11.10;99.90;;;;;;4953322;29;20046;-50
2023/03/18 08:24:33;;;;;;;33.33;23.90;;;11.10;99.90;;;;;;4953357;29;20475;-51
2023/03/18 08:26:58;;;;;;;28.92;22.80;;;11.10;99.90;;;;;;4935815;29;20050;-47
2023/03/18 08:29:24;;;;;;;34.28;22.92;;;11.20;99.90;;;;;;4953822;29;20076;-44
2023/03/18 08:31:50;;;;;;;31.35;24.10;;;11.40;99.90;;;;;;4954043;28;20491;-48
2023/03/18 08:34:15;;;;;;;29.02;21.73;;;11.30;99.90;;;;;;4953927;29;20050;-47
2023/03/18 08:36:41;;;;;;;27.65;21.90;;;11.40;99.90;;;;;;4954371;29;20062;-48
2023/03/18 08:39:08;;;;;;;28.63;22.83;;;11.50;99.90;;;;;;4954962;29;20122;-47
2023/03/18 08:41:34;;;;;;;28.75;22.42;;;11.50;99.90;;;;;;4937302;29;20039;-50
2023/03/18 08:44:01;;;;;;;30.25;24.02;;;11.70;99.90;;;;;;4953837;28;20518;-46
2023/03/18 08:46:27;;;;;;;28.00;20.67;;;11.70;99.90;;;;;;4969072;28;20463;-49
2023/03/18 08:48:53;;;;;;;33.33;23.13;;;11.80;99.90;;;;;;4952269;28;20038;-47
2023/03/18 08:51:21;;;;;;;28.20;23.13;;;12.00;99.90;;;;;;4954511;29;20035;-50
2023/03/18 08:53:46;;;;;;;30.55;25.00;;;12.10;99.90;;;;;;4954590;29;20054;-47
2023/03/18 08:56:13;;;;;;;31.75;23.13;;;12.20;99.90;;;;;;4954388;29;20395;-47
2023/03/18 08:58:40;;;;;;;30.63;23.20;;;12.40;99.90;;;;;;4952532;28;20047;-48
2023/03/18 09:01:06;;;;;;;26.35;21.55;;;12.40;99.90;;;;;;4953845;28;20391;-50
2023/03/18 09:03:33;;;;;;;31.90;22.80;;;12.50;99.90;;;;;;4951913;29;20039;-49
2023/03/18 09:05:59;;;;;;;30.52;23.35;;;12.50;99.90;;;;;;4953461;28;20275;-50
2023/03/18 09:08:25;;;;;;;28.67;24.25;;;12.60;99.90;;;;;;4952888;28;20050;-49
2023/03/18 09:10:54;;;;;;;29.05;23.77;;;12.60;99.90;;;;;;4953843;28;20039;-49
2023/03/18 09:13:21;;;;;;;28.88;23.17;;;12.60;99.90;;;;;;4952677;28;20431;-49
2023/03/18 09:15:47;;;;;;;29.52;23.80;;;12.60;99.90;;;;;;4953216;28;20114;-49
2023/03/18 09:18:14;;;;;;;25.30;22.25;;;12.70;99.90;;;;;;4953497;28;20587;-46
2023/03/18 09:20:40;;;;;;;25.27;21.90;;;12.70;99.90;;;;;;4953667;28;20122;-51
2023/03/18 09:23:08;;;;;;;25.80;22.20;;;12.80;99.90;;;;;;4953107;29;20039;-47
2023/03/18 09:25:33;;;;;;;28.75;21.52;;;12.90;99.90;;;;;;4952886;28;20503;-48
2023/03/18 09:27:59;;;;;;;25.50;20.20;;;13.00;99.90;;;;;;4953173;28;20043;-47
2023/03/18 09:30:26;;;;;;;22.20;17.67;;;13.10;99.90;;;;;;4951614;29;20714;-47
2023/03/18 09:32:52;;;;;;;22.17;15.90;;;13.30;99.90;;;;;;4952457;28;20047;-50
2023/03/18 09:35:18;;;;;;;16.88;14.65;;;13.30;99.90;;;;;;4952974;28;20518;-49
2023/03/18 09:37:44;;;;;;;20.25;16.60;;;13.40;99.90;;;;;;4953010;28;20099;-49
2023/03/18 09:40:31;;;;;;;20.33;15.57;;;13.40;99.90;;;;;;4951966;29;20057;-49
2023/03/18 09:43:43;;;;;;;20.60;15.38;;;13.30;99.90;;;;;;4952554;28;20071;-48
2023/03/18 09:46:17;;;;;;;19.20;15.95;;;13.40;99.90;;;;;;4929404;29;20051;-46
2023/03/18 09:49:03;;;;;;;19.27;16.33;;;13.50;99.90;;;;;;4948504;29;20138;-49
2023/03/18 09:51:36;;;;;;;21.25;17.58;;;13.70;99.90;;;;;;4953004;28;20075;-49
2023/03/18 09:54:09;;;;;;;20.63;17.77;;;13.80;99.90;;;;;;4950709;29;20043;-47
2023/03/18 09:56:37;;;;;;;19.30;15.93;;;14.10;99.90;;;;;;4952500;28;20050;-48
2023/03/18 09:59:34;;;;;;;21.35;16.40;;;14.30;99.90;;;;;;4952566;28;20043;-47
2023/03/18 10:02:01;;;;;;;17.40;14.80;;;14.40;99.90;;;;;;4947669;28;20047;-48
2023/03/18 10:04:37;;;;;;;18.10;15.25;;;14.30;99.90;;;;;;4952648;28;20047;-48
2023/03/18 10:07:12;;;;;;;17.98;15.20;;;14.30;99.90;;;;;;4951961;29;20118;-47
2023/03/18 10:09:45;;;;;;;18.50;14.98;;;14.30;99.90;;;;;;4952677;28;20039;-48
2023/03/18 10:12:32;;;;;;;17.92;13.60;;;14.30;99.90;;;;;;4950833;29;20042;-49
2023/03/18 10:15:19;;;;;;;18.45;15.05;;;14.30;99.90;;;;;;4952325;29;20051;-46
2023/03/18 10:17:50;;;;;;;17.70;14.57;;;14.50;99.90;;;;;;4952603;28;20047;-47
2023/03/18 10:20:41;;;;;;;16.65;14.00;;;14.70;99.90;;;;;;4951786;28;20047;-47
2023/03/18 10:23:43;;;;;;;16.33;13.30;;;14.90;99.90;;;;;;4952260;28;20042;-49
2023/03/18 10:26:28;;;;;;;18.63;14.05;;;15.00;99.90;;;;;;4950626;28;20043;-49
2023/03/18 10:29:13;;;;;;;14.82;12.68;;;15.10;99.90;;;;;;4952168;28;20042;-49
2023/03/18 10:31:56;;;;;;;14.30;12.20;;;15.20;99.90;;;;;;4952104;28;20509;-51
2023/03/18 10:34:50;;;;;;;15.40;12.10;;;15.40;99.90;;;;;;4952304;29;20035;-48
2023/03/18 10:37:34;;;;;;;14.23;10.95;;;15.40;99.90;;;;;;4933440;29;20208;-48
2023/03/18 10:40:01;;;;;;;14.18;12.15;;;15.40;99.90;;;;;;4952329;29;20047;-51
2023/03/18 10:42:29;;;;;;;13.55;10.45;;;15.30;99.90;;;;;;4952147;28;20090;-49
2023/03/18 10:45:07;;;;;;;13.38;11.98;;;15.30;99.90;;;;;;4950257;29;20103;-48
2023/03/18 10:47:39;;;;;;;12.57;10.43;;;15.30;99.90;;;;;;4952414;28;20066;-52
2023/03/18 10:50:17;;;;;;;14.23;11.20;;;15.30;99.90;;;;;;4951086;28;20158;-48
2023/03/18 10:53:18;;;;;;;15.43;11.05;;;15.40;99.90;;;;;;4950368;29;20086;-48
2023/03/18 10:56:10;;;;;;;11.07;8.18;;;15.60;99.90;;;;;;4933961;28;20058;-48
2023/03/18 10:58:40;;;;;;;8.27;6.75;;;15.80;99.90;;;;;;4949409;29;20098;-49
2023/03/18 11:01:11;;;;;;;8.80;5.15;;;15.90;99.90;;;;;;4948756;29;20051;-47
2023/03/18 11:03:44;;;;;;;7.25;5.00;;;16.00;99.90;;;;;;4950743;28;20047;-48
2023/03/18 11:06:24;;;;;;;6.30;3.70;;;16.10;99.90;;;;;;4951774;29;20066;-48
2023/03/18 11:09:00;;;;;;;8.63;5.78;;;16.20;99.90;;;;;;4950720;29;20035;-47
2023/03/18 11:11:33;;;;;;;9.68;7.28;;;16.30;99.90;;;;;;4951401;28;20031;-48
2023/03/18 11:14:01;;;;;;;10.32;7.30;;;16.40;99.90;;;;;;4951670;28;20145;-46
2023/03/18 11:16:34;;;;;;;12.20;7.97;;;16.30;99.90;;;;;;4951940;28;20431;-49
2023/03/18 11:19:26;;;;;;;11.57;8.43;;;16.40;99.90;;;;;;4951711;28;20039;-50
2023/03/18 11:22:09;;;;;;;12.43;8.73;;;16.50;99.90;;;;;;4950950;29;20447;-51
2023/03/18 11:24:41;;;;;;;15.05;9.75;;;16.50;99.90;;;;;;4951418;28;20114;-47
2023/03/18 11:27:13;;;;;;;13.05;10.63;;;16.50;99.90;;;;;;4952039;28;20125;-49
2023/03/18 11:29:54;;;;;;;13.75;9.70;;;16.50;99.90;;;;;;4950788;29;20078;-48
2023/03/18 11:32:30;;;;;;;13.93;10.27;;;16.60;99.90;;;;;;4951828;28;20035;-49
2023/03/18 11:35:07;;;;;;;11.63;8.80;;;16.60;99.90;;;;;;4950865;28;20043;-49
2023/03/18 11:37:36;;;;;;;12.57;9.55;;;16.60;99.90;;;;;;4951868;28;20055;-49
2023/03/18 11:40:26;;;;;;;14.20;10.23;;;16.70;99.90;;;;;;4952506;28;20047;-49
2023/03/18 11:43:03;;;;;;;12.77;9.57;;;16.80;99.90;;;;;;4949855;29;20055;-50
2023/03/18 11:45:50;;;;;;;12.65;9.05;;;16.90;99.90;;;;;;4949889;28;20050;-47
2023/03/18 11:48:31;;;;;;;12.02;9.63;;;16.80;99.90;;;;;;4951651;28;20067;-46
2023/03/18 11:51:12;;;;;;;12.48;10.00;;;16.80;99.90;;;;;;4951489;28;20045;-48
2023/03/18 11:53:54;;;;;;;13.05;10.13;;;16.80;99.90;;;;;;4951962;29;20039;-48
2023/03/18 11:56:51;;;;;;;12.52;9.35;;;16.90;99.90;;;;;;4951843;29;20133;-48
2023/03/18 11:59:26;;;;;;;11.70;9.63;;;17.00;99.90;;;;;;4948490;28;20102;-49
2023/03/18 12:02:11;;;;;;;13.85;10.07;;;17.10;99.90;;;;;;4955215;28;20181;-49
2023/03/18 12:05:01;;;;;;;11.55;8.45;;;17.10;99.90;;;;;;4953930;28;20050;-48
2023/03/18 12:07:40;;;;;;;13.18;9.63;;;17.20;99.90;;;;;;4954116;28;20112;-50
2023/03/18 12:10:14;;;;;;;12.55;9.70;;;17.20;99.90;;;;;;4953498;29;20118;-48
2023/03/18 12:13:19;;;;;;;12.23;10.35;;;17.30;99.90;;;;;;4954294;28;20035;-46
2023/03/18 12:15:48;;;;;;;;;;;17.60;99.90;;;;;;4954174;29;20506;-48
2023/03/18 12:18:42;;;;;;;14.68;10.23;;;17.70;99.90;;;;;;4951089;28;19932;-49
2023/03/18 12:21:34;;;;;;;14.43;10.63;;;17.70;99.90;;;;;;4952209;29;20059;-49
2023/03/18 12:24:42;;;;;;;13.20;10.77;;;17.60;99.90;;;;;;4953051;29;20042;-48
2023/03/18 12:27:18;;;;;;;14.82;11.57;;;17.40;99.90;;;;;;4942411;29;20118;-50
2023/03/18 12:30:03;;;;;;;15.88;11.35;;;17.40;99.90;;;;;;4940362;29;20043;-46
2023/03/18 12:32:49;;;;;;;14.00;10.57;;;17.30;99.90;;;;;;4944049;29;22774;-48
2023/03/18 12:35:36;;;;;;;13.82;10.45;;;17.20;99.90;;;;;;4938014;29;20057;-49
2023/03/18 12:38:40;;;;;;;13.70;10.48;;;17.10;99.90;;;;;;4943532;29;20423;-50
2023/03/18 12:41:24;;;;;;;11.82;10.23;;;17.00;99.90;;;;;;4943187;29;20043;-50
2023/03/18 12:44:06;;;;;;;13.50;10.82;;;17.00;99.90;;;;;;4944072;29;20146;-49
2023/03/18 12:47:10;;;;;;;15.57;10.57;;;17.20;99.90;;;;;;4942424;29;20035;-49
2023/03/18 12:49:50;;;;;;;12.13;9.50;;;17.50;99.90;;;;;;4940828;29;20040;-48